sensor_id;sensor_type;location;lat;lon;timestamp;pressure;altitude;pressure_sealevel;temperature;humidity
33635;BME280;19972;54.360;10.076;2022-11-23T00:01:28;99397.03;;;1.35;100.00
33635;BME280;19972;54.360;10.076;2022-11-23T00:03:57;99396.94;;;1.36;100.00
33635;BME280;19972;54.360;10.076;2022-11-23T00:06:23;99397.03;;;1.35;100.00
33635;BME280;19972;54.360;10.076;2022-11-23T00:08:51;99397.66;;;1.40;100.00
33635;BME280;19972;54.360;10.076;2022-11-23T00:11:19;99392.56;;;1.37;100.00
33635;BME280;19972;54.360;10.076;2022-11-23T00:13:46;99403.03;;;1.37;100.00
33635;BME280;19972;54.360;10.076;2022-11-23T00:16:15;99406.91;;;1.47;100.00
33635;BME280;19972;54.360;10.076;2022-11-23T00:18:43;99409.06;;;1.56;100.00
33635;BME280;19972;54.360;10.076;2022-11-23T00:21:14;99405.53;;;1.57;100.00
33635;BME280;19972;54.360;10.076;2022-11-23T00:23:42;99402.44;;;1.49;100.00
33635;BME280;19972;54.360;10.076;2022-11-23T00:26:08;99393.81;;;1.47;100.00
33635;BME280;19972;54.360;10.076;2022-11-23T00:28:35;99385.06;;;1.82;100.00
33635;BME280;19972;54.360;10.076;2022-11-23T00:31:19;99389.63;;;1.62;100.00
33635;BME280;19972;54.360;10.076;2022-11-23T00:33:52;99383.06;;;1.53;100.00
33635;BME280;19972;54.360;10.076;2022-11-23T00:36:20;99381.97;;;1.40;100.00
33635;BME280;19972;54.360;10.076;2022-11-23T00:38:48;99388.81;;;1.42;100.00
33635;BME280;19972;54.360;10.076;2022-11-23T00:41:17;99376.44;;;1.46;100.00
33635;BME280;19972;54.360;10.076;2022-11-23T00:43:44;99380.00;;;1.62;100.00
33635;BME280;19972;54.360;10.076;2022-11-23T00:46:13;99373.88;;;1.44;100.00
33635;BME280;19972;54.360;10.076;2022-11-23T00:48:45;99385.69;;;1.53;100.00
33635;BME280;19972;54.360;10.076;2022-11-23T00:51:14;99374.19;;;1.38;100.00
33635;BME280;19972;54.360;10.076;2022-11-23T00:53:42;99379.22;;;1.60;100.00
33635;BME280;19972;54.360;10.076;2022-11-23T00:56:09;99380.13;;;1.42;100.00
33635;BME280;19972;54.360;10.076;2022-11-23T00:58:35;99380.22;;;1.57;100.00
33635;BME280;19972;54.360;10.076;2022-11-23T01:01:13;99381.69;;;1.46;100.00
33635;BME280;19972;54.360;10.076;2022-11-23T01:03:45;99380.19;;;1.40;100.00
33635;BME280;19972;54.360;10.076;2022-11-23T01:06:17;99379.72;;;1.32;100.00
33635;BME280;19972;54.360;10.076;2022-11-23T01:08:51;99386.94;;;1.44;100.00
33635;BME280;19972;54.360;10.076;2022-11-23T01:11:19;99381.78;;;1.62;100.00
33635;BME280;19972;54.360;10.076;2022-11-23T01:13:46;99382.50;;;1.46;100.00
33635;BME280;19972;54.360;10.076;2022-11-23T01:16:18;99378.66;;;1.36;100.00
33635;BME280;19972;54.360;10.076;2022-11-23T01:18:57;99379.06;;;1.63;100.00
33635;BME280;19972;54.360;10.076;2022-11-23T01:21:25;99379.97;;;1.45;100.00
33635;BME280;19972;54.360;10.076;2022-11-23T01:23:51;99377.97;;;1.50;100.00
33635;BME280;19972;54.360;10.076;2022-11-23T01:26:18;99375.94;;;1.38;100.00
33635;BME280;19972;54.360;10.076;2022-11-23T01:28:45;99385.44;;;1.40;100.00
33635;BME280;19972;54.360;10.076;2022-11-23T01:31:16;99380.56;;;1.32;100.00
33635;BME280;19972;54.360;10.076;2022-11-23T01:33:43;99386.28;;;1.41;100.00
33635;BME280;19972;54.360;10.076;2022-11-23T01:36:15;99381.97;;;1.40;100.00
33635;BME280;19972;54.360;10.076;2022-11-23T01:38:42;99380.13;;;1.42;100.00
33635;BME280;19972;54.360;10.076;2022-11-23T01:41:12;99383.06;;;1.53;100.00
33635;BME280;19972;54.360;10.076;2022-11-23T01:43:39;99388.78;;;1.61;100.00
33635;BME280;19972;54.360;10.076;2022-11-23T01:46:06;99395.31;;;1.70;100.00
33635;BME280;19972;54.360;10.076;2022-11-23T01:51:36;99388.31;;;1.88;100.00
33635;BME280;19972;54.360;10.076;2022-11-23T01:54:14;99390.16;;;1.85;100.00
33635;BME280;19972;54.360;10.076;2022-11-23T01:56:45;99382.31;;;1.85;100.00
33635;BME280;19972;54.360;10.076;2022-11-23T01:59:15;99385.06;;;1.82;100.00
33635;BME280;19972;54.360;10.076;2022-11-23T02:01:42;99392.94;;;2.00;100.00
33635;BME280;19972;54.360;10.076;2022-11-23T02:04:12;99389.47;;;1.82;100.00
33635;BME280;19972;54.360;10.076;2022-11-23T02:06:39;99383.56;;;1.78;100.00
33635;BME280;19972;54.360;10.076;2022-11-23T02:09:08;99388.47;;;1.84;100.00
33635;BME280;19972;54.360;10.076;2022-11-23T02:11:34;99391.84;;;1.87;100.00
33635;BME280;19972;54.360;10.076;2022-11-23T02:14:01;99381.38;;;1.87;100.00
33635;BME280;19972;54.360;10.076;2022-11-23T02:16:27;99384.09;;;1.85;100.00
33635;BME280;19972;54.360;10.076;2022-11-23T02:18:54;99384.22;;;1.82;100.00
33635;BME280;19972;54.360;10.076;2022-11-23T02:21:20;99372.16;;;1.79;100.00
33635;BME280;19972;54.360;10.076;2022-11-23T02:24:13;99368.72;;;1.79;100.00
33635;BME280;19972;54.360;10.076;2022-11-23T02:26:43;99369.94;;;1.89;100.00
33635;BME280;19972;54.360;10.076;2022-11-23T02:29:16;99370.47;;;1.96;100.00
33635;BME280;19972;54.360;10.076;2022-11-23T02:31:43;99368.78;;;1.95;100.00
33635;BME280;19972;54.360;10.076;2022-11-23T02:34:10;99367.06;;;1.94;100.00
33635;BME280;19972;54.360;10.076;2022-11-23T02:36:42;99363.56;;;1.95;100.00
33635;BME280;19972;54.360;10.076;2022-11-23T02:41:59;99368.53;;;1.82;100.00
33635;BME280;19972;54.360;10.076;2022-11-23T02:47:14;99365.25;;;1.78;100.00
33635;BME280;19972;54.360;10.076;2022-11-23T02:49:44;99368.28;;;2.04;100.00
33635;BME280;19972;54.360;10.076;2022-11-23T02:52:11;99368.47;;;2.01;100.00
33635;BME280;19972;54.360;10.076;2022-11-23T02:54:38;99363.06;;;2.04;100.00
33635;BME280;19972;54.360;10.076;2022-11-23T02:57:05;99371.41;;;1.95;100.00
33635;BME280;19972;54.360;10.076;2022-11-23T02:59:31;99368.78;;;1.95;100.00
33635;BME280;19972;54.360;10.076;2022-11-23T03:02:01;99380.53;;;2.03;100.00
33635;BME280;19972;54.360;10.076;2022-11-23T03:04:27;99378.94;;;2.01;100.00
33635;BME280;19972;54.360;10.076;2022-11-23T03:06:54;99364.47;;;2.11;100.00
33635;BME280;19972;54.360;10.076;2022-11-23T03:09:21;99375.06;;;2.08;100.00
33635;BME280;19972;54.360;10.076;2022-11-23T03:11:48;99374.69;;;1.98;100.00
33635;BME280;19972;54.360;10.076;2022-11-23T03:14:14;99383.22;;;2.19;100.00
33635;BME280;19972;54.360;10.076;2022-11-23T03:16:41;99387.44;;;2.22;100.00
33635;BME280;19972;54.360;10.076;2022-11-23T03:19:07;99377.50;;;2.46;100.00
33635;BME280;19972;54.360;10.076;2022-11-23T03:21:34;99377.84;;;2.22;100.00
33635;BME280;19972;54.360;10.076;2022-11-23T03:24:00;99377.69;;;2.08;100.00
33635;BME280;19972;54.360;10.076;2022-11-23T03:26:27;99375.28;;;2.21;100.00
33635;BME280;19972;54.360;10.076;2022-11-23T03:28:53;99374.97;;;2.27;100.00
33635;BME280;19972;54.360;10.076;2022-11-23T03:31:20;99375.28;;;2.21;100.00
33635;BME280;19972;54.360;10.076;2022-11-23T03:33:46;99372.28;;;2.28;100.00
33635;BME280;19972;54.360;10.076;2022-11-23T03:36:13;99374.81;;;2.30;100.00
33635;BME280;19972;54.360;10.076;2022-11-23T03:38:39;99371.03;;;2.35;100.00
33635;BME280;19972;54.360;10.076;2022-11-23T03:41:06;99376.59;;;2.29;100.00
33635;BME280;19972;54.360;10.076;2022-11-23T03:43:32;99388.31;;;2.22;100.00
33635;BME280;19972;54.360;10.076;2022-11-23T03:45:58;99380.94;;;2.13;100.00
33635;BME280;19972;54.360;10.076;2022-11-23T03:48:25;99383.38;;;2.16;100.00
33635;BME280;19972;54.360;10.076;2022-11-23T03:50:51;99387.31;;;2.07;100.00
33635;BME280;19972;54.360;10.076;2022-11-23T03:53:18;99388.03;;;2.11;100.00
33635;BME280;19972;54.360;10.076;2022-11-23T03:55:45;99374.91;;;2.28;100.00
33635;BME280;19972;54.360;10.076;2022-11-23T03:58:12;99386.13;;;2.30;100.00
33635;BME280;19972;54.360;10.076;2022-11-23T04:00:38;99378.91;;;2.18;100.00
33635;BME280;19972;54.360;10.076;2022-11-23T04:03:05;99376.59;;;2.29;100.00
33635;BME280;19972;54.360;10.076;2022-11-23T04:05:32;99380.91;;;2.30;100.00
33635;BME280;19972;54.360;10.076;2022-11-23T04:07:58;99381.41;;;2.37;100.00
33635;BME280;19972;54.360;10.076;2022-11-23T04:10:25;99379.22;;;2.29;100.00
33635;BME280;19972;54.360;10.076;2022-11-23T04:12:52;99375.47;;;2.18;100.00
33635;BME280;19972;54.360;10.076;2022-11-23T04:15:19;99377.38;;;2.14;100.00
33635;BME280;19972;54.360;10.076;2022-11-23T04:17:46;99368.09;;;2.42;100.00
33635;BME280;19972;54.360;10.076;2022-11-23T04:20:12;99363.88;;;2.39;100.00
33635;BME280;19972;54.360;10.076;2022-11-23T04:22:39;99366.72;;;2.34;100.00
33635;BME280;19972;54.360;10.076;2022-11-23T04:25:06;99365.91;;;2.50;100.00
33635;BME280;19972;54.360;10.076;2022-11-23T04:27:32;99376.28;;;2.35;100.00
33635;BME280;19972;54.360;10.076;2022-11-23T04:29:59;99370.84;;;2.38;100.00
33635;BME280;19972;54.360;10.076;2022-11-23T04:32:25;99372.59;;;2.55;100.00
33635;BME280;19972;54.360;10.076;2022-11-23T04:34:52;99373.19;;;2.45;100.00
33635;BME280;19972;54.360;10.076;2022-11-23T04:37:18;99369.72;;;2.60;100.00
33635;BME280;19972;54.360;10.076;2022-11-23T04:39:44;99376.84;;;2.58;100.00
33635;BME280;19972;54.360;10.076;2022-11-23T04:42:11;99369.13;;;2.55;100.00
33635;BME280;19972;54.360;10.076;2022-11-23T04:44:38;99372.03;;;2.66;100.00
33635;BME280;19972;54.360;10.076;2022-11-23T04:47:04;99366.84;;;2.49;100.00
33635;BME280;19972;54.360;10.076;2022-11-23T04:49:31;99358.81;;;2.52;100.00
33635;BME280;19972;54.360;10.076;2022-11-23T04:51:58;99368.38;;;2.53;100.00
33635;BME280;19972;54.360;10.076;2022-11-23T04:54:24;99367.72;;;2.65;100.00
33635;BME280;19972;54.360;10.076;2022-11-23T04:56:51;99365.28;;;2.62;100.00
33635;BME280;19972;54.360;10.076;2022-11-23T04:59:19;99363.31;;;2.65;100.00
33635;BME280;19972;54.360;10.076;2022-11-23T05:01:46;99362.63;;;2.46;100.00
33635;BME280;19972;54.360;10.076;2022-11-23T05:04:12;99355.97;;;2.56;100.00
33635;BME280;19972;54.360;10.076;2022-11-23T05:06:43;99374.06;;;2.61;100.00
33635;BME280;19972;54.360;10.076;2022-11-23T05:09:10;99363.88;;;2.55;100.00
33635;BME280;19972;54.360;10.076;2022-11-23T05:11:37;99372.72;;;2.70;100.00
33635;BME280;19972;54.360;10.076;2022-11-23T05:14:03;99373.47;;;2.56;100.00
33635;BME280;19972;54.360;10.076;2022-11-23T05:16:30;99386.22;;;2.62;100.00
33635;BME280;19972;54.360;10.076;2022-11-23T05:18:56;99381.00;;;2.62;100.00
33635;BME280;19972;54.360;10.076;2022-11-23T05:21:23;99376.44;;;2.81;100.00
33635;BME280;19972;54.360;10.076;2022-11-23T05:23:49;99381.19;;;2.90;100.00
33635;BME280;19972;54.360;10.076;2022-11-23T05:26:16;99376.91;;;2.89;100.00
33635;BME280;19972;54.360;10.076;2022-11-23T05:28:42;99376.56;;;2.96;100.00
33635;BME280;19972;54.360;10.076;2022-11-23T05:31:09;99377.97;;;2.85;100.00
33635;BME280;19972;54.360;10.076;2022-11-23T05:33:35;99368.50;;;2.83;100.00
33635;BME280;19972;54.360;10.076;2022-11-23T05:36:02;99371.66;;;2.89;100.00
33635;BME280;19972;54.360;10.076;2022-11-23T05:38:29;99382.13;;;2.89;100.00
33635;BME280;19972;54.360;10.076;2022-11-23T05:40:55;99384.94;;;3.02;100.00
33635;BME280;19972;54.360;10.076;2022-11-23T05:43:22;99382.06;;;3.07;100.00
33635;BME280;19972;54.360;10.076;2022-11-23T05:45:48;99375.44;;;3.00;100.00
33635;BME280;19972;54.360;10.076;2022-11-23T05:48:15;99380.53;;;3.03;100.00
33635;BME280;19972;54.360;10.076;2022-11-23T05:50:42;99376.28;;;3.16;100.00
33635;BME280;19972;54.360;10.076;2022-11-23T05:53:08;99379.44;;;3.07;100.00
33635;BME280;19972;54.360;10.076;2022-11-23T05:55:35;99376.88;;;3.21;100.00
33635;BME280;19972;54.360;10.076;2022-11-23T05:58:02;99379.34;;;3.24;100.00
33635;BME280;19972;54.360;10.076;2022-11-23T06:00:29;99386.72;;;3.33;100.00
33635;BME280;19972;54.360;10.076;2022-11-23T06:03:02;99386.13;;;3.28;100.00
33635;BME280;19972;54.360;10.076;2022-11-23T06:05:29;99381.38;;;3.19;100.00
33635;BME280;19972;54.360;10.076;2022-11-23T06:07:56;99381.38;;;3.19;100.00
33635;BME280;19972;54.360;10.076;2022-11-23T06:10:22;99372.81;;;3.31;100.00
33635;BME280;19972;54.360;10.076;2022-11-23T06:12:49;99382.34;;;3.48;100.00
33635;BME280;19972;54.360;10.076;2022-11-23T06:15:15;99384.41;;;3.27;100.00
33635;BME280;19972;54.360;10.076;2022-11-23T06:17:42;99380.63;;;3.17;100.00
33635;BME280;19972;54.360;10.076;2022-11-23T06:20:09;99387.44;;;3.04;100.00
33635;BME280;19972;54.360;10.076;2022-11-23T06:22:35;99384.59;;;3.08;100.00
33635;BME280;19972;54.360;10.076;2022-11-23T06:25:01;99385.69;;;3.04;100.00
33635;BME280;19972;54.360;10.076;2022-11-23T06:27:28;99380.88;;;3.12;100.00
33635;BME280;19972;54.360;10.076;2022-11-23T06:29:54;99386.47;;;3.22;100.00
33635;BME280;19972;54.360;10.076;2022-11-23T06:32:21;99394.03;;;3.11;100.00
33635;BME280;19972;54.360;10.076;2022-11-23T06:34:47;99397.69;;;3.08;100.00
33635;BME280;19972;54.360;10.076;2022-11-23T06:37:14;99397.09;;;3.03;100.00
33635;BME280;19972;54.360;10.076;2022-11-23T06:39:40;99404.22;;;3.01;100.00
33635;BME280;19972;54.360;10.076;2022-11-23T06:42:07;99409.63;;;3.14;100.00
33635;BME280;19972;54.360;10.076;2022-11-23T06:44:53;99412.13;;;3.00;100.00
33635;BME280;19972;54.360;10.076;2022-11-23T06:47:20;99419.94;;;3.01;100.00
33635;BME280;19972;54.360;10.076;2022-11-23T06:49:51;99413.84;;;3.01;100.00
33635;BME280;19972;54.360;10.076;2022-11-23T06:52:18;99417.63;;;3.11;100.00
33635;BME280;19972;54.360;10.076;2022-11-23T06:54:46;99412.84;;;3.19;100.00
33635;BME280;19972;54.360;10.076;2022-11-23T06:57:12;99415.13;;;3.09;100.00
33635;BME280;19972;54.360;10.076;2022-11-23T06:59:39;99409.28;;;3.20;100.00
33635;BME280;19972;54.360;10.076;2022-11-23T07:02:10;99420.94;;;3.14;100.00
33635;BME280;19972;54.360;10.076;2022-11-23T07:04:37;99426.03;;;3.17;100.00
33635;BME280;19972;54.360;10.076;2022-11-23T07:07:03;99421.31;;;3.24;100.00
33635;BME280;19972;54.360;10.076;2022-11-23T07:09:30;99427.25;;;3.28;100.00
33635;BME280;19972;54.360;10.076;2022-11-23T07:11:57;99419.78;;;3.20;100.00
33635;BME280;19972;54.360;10.076;2022-11-23T07:14:23;99430.13;;;3.39;100.00
33635;BME280;19972;54.360;10.076;2022-11-23T07:16:50;99423.97;;;3.54;100.00
33635;BME280;19972;54.360;10.076;2022-11-23T07:19:17;99423.84;;;3.41;100.00
33635;BME280;19972;54.360;10.076;2022-11-23T07:21:44;99413.00;;;3.48;100.00
33635;BME280;19972;54.360;10.076;2022-11-23T07:24:10;99426.22;;;3.46;100.00
33635;BME280;19972;54.360;10.076;2022-11-23T07:26:37;99422.31;;;3.37;100.00
33635;BME280;19972;54.360;10.076;2022-11-23T07:29:03;99430.34;;;3.50;100.00
33635;BME280;19972;54.360;10.076;2022-11-23T07:31:30;99425.41;;;3.60;100.00
33635;BME280;19972;54.360;10.076;2022-11-23T07:33:56;99436.09;;;3.57;100.00
33635;BME280;19972;54.360;10.076;2022-11-23T07:36:23;99435.31;;;3.55;100.00
33635;BME280;19972;54.360;10.076;2022-11-23T07:38:49;99435.16;;;3.74;100.00
33635;BME280;19972;54.360;10.076;2022-11-23T07:41:16;99430.91;;;3.71;100.00
33635;BME280;19972;54.360;10.076;2022-11-23T07:43:42;99436.34;;;3.68;100.00
33635;BME280;19972;54.360;10.076;2022-11-23T07:46:09;99427.69;;;3.66;100.00
33635;BME280;19972;54.360;10.076;2022-11-23T07:48:36;99427.38;;;3.72;100.00
33635;BME280;19972;54.360;10.076;2022-11-23T07:51:02;99433.03;;;3.64;100.00
33635;BME280;19972;54.360;10.076;2022-11-23T07:53:29;99430.25;;;3.67;100.00
33635;BME280;19972;54.360;10.076;2022-11-23T07:55:56;99435.28;;;3.86;100.00
33635;BME280;19972;54.360;10.076;2022-11-23T07:58:24;99432.41;;;3.91;100.00
33635;BME280;19972;54.360;10.076;2022-11-23T08:00:50;99435.06;;;3.75;100.00
33635;BME280;19972;54.360;10.076;2022-11-23T08:03:18;99441.97;;;3.92;100.00
33635;BME280;19972;54.360;10.076;2022-11-23T08:05:53;99442.72;;;3.94;100.00
33635;BME280;19972;54.360;10.076;2022-11-23T08:08:19;99435.47;;;3.83;100.00
33635;BME280;19972;54.360;10.076;2022-11-23T08:10:46;99442.56;;;3.81;100.00
33635;BME280;19972;54.360;10.076;2022-11-23T08:13:20;99441.25;;;3.74;100.00
33635;BME280;19972;54.360;10.076;2022-11-23T08:15:46;99445.81;;;3.70;100.00
33635;BME280;19972;54.360;10.076;2022-11-23T08:18:20;99446.28;;;3.93;100.00
33635;BME280;19972;54.360;10.076;2022-11-23T08:20:46;99440.03;;;3.95;100.00
33635;BME280;19972;54.360;10.076;2022-11-23T08:23:13;99443.75;;;3.91;100.00
33635;BME280;19972;54.360;10.076;2022-11-23T08:25:39;99451.03;;;3.86;100.00
33635;BME280;19972;54.360;10.076;2022-11-23T08:28:06;99437.91;;;4.16;100.00
33635;BME280;19972;54.360;10.076;2022-11-23T08:30:33;99447.78;;;4.13;100.00
33635;BME280;19972;54.360;10.076;2022-11-23T08:33:06;99443.72;;;4.07;100.00
33635;BME280;19972;54.360;10.076;2022-11-23T08:35:38;99448.25;;;4.19;100.00
33635;BME280;19972;54.360;10.076;2022-11-23T08:38:06;99448.19;;;4.05;100.00
33635;BME280;19972;54.360;10.076;2022-11-23T08:40:34;99453.38;;;4.07;100.00
33635;BME280;19972;54.360;10.076;2022-11-23T08:43:01;99444.03;;;4.17;100.00
33635;BME280;19972;54.360;10.076;2022-11-23T08:45:27;99443.66;;;4.23;100.00
33635;BME280;19972;54.360;10.076;2022-11-23T08:47:58;99456.13;;;4.19;100.00
33635;BME280;19972;54.360;10.076;2022-11-23T08:50:26;99452.34;;;4.09;100.00
33635;BME280;19972;54.360;10.076;2022-11-23T08:52:57;99449.09;;;4.20;100.00
33635;BME280;19972;54.360;10.076;2022-11-23T08:55:25;99450.25;;;4.30;100.00
33635;BME280;19972;54.360;10.076;2022-11-23T08:57:59;99452.78;;;4.32;100.00
33635;BME280;19972;54.360;10.076;2022-11-23T09:00:26;99451.41;;;4.40;100.00
33635;BME280;19972;54.360;10.076;2022-11-23T09:02:53;99458.19;;;4.44;100.00
33635;BME280;19972;54.360;10.076;2022-11-23T09:05:20;99451.78;;;4.34;100.00
33635;BME280;19972;54.360;10.076;2022-11-23T09:07:47;99456.66;;;4.40;100.00
33635;BME280;19972;54.360;10.076;2022-11-23T09:10:14;99454.59;;;4.45;100.00
33635;BME280;19972;54.360;10.076;2022-11-23T09:12:45;99461.00;;;4.56;100.00
33635;BME280;19972;54.360;10.076;2022-11-23T09:15:12;99455.00;;;4.68;100.00
33635;BME280;19972;54.360;10.076;2022-11-23T09:17:38;99453.97;;;4.56;100.00
33635;BME280;19972;54.360;10.076;2022-11-23T09:20:06;99456.75;;;4.53;100.00
33635;BME280;19972;54.360;10.076;2022-11-23T09:22:33;99467.75;;;4.45;100.00
33635;BME280;19972;54.360;10.076;2022-11-23T09:24:59;99468.47;;;4.33;100.00
33635;BME280;19972;54.360;10.076;2022-11-23T09:27:26;99465.28;;;4.42;100.00
33635;BME280;19972;54.360;10.076;2022-11-23T09:29:52;99471.97;;;4.48;100.00
33635;BME280;19972;54.360;10.076;2022-11-23T09:32:19;99465.13;;;4.45;100.00
33635;BME280;19972;54.360;10.076;2022-11-23T09:34:45;99464.75;;;4.52;100.00
33635;BME280;19972;54.360;10.076;2022-11-23T09:37:12;99470.22;;;4.77;100.00
33635;BME280;19972;54.360;10.076;2022-11-23T09:39:39;99475.47;;;4.77;100.00
33635;BME280;19972;54.360;10.076;2022-11-23T09:42:50;99473.03;;;4.88;100.00
33635;BME280;19972;54.360;10.076;2022-11-23T09:50:24;99462.03;;;5.10;100.00
33635;BME280;19972;54.360;10.076;2022-11-23T09:52:53;99468.88;;;5.27;100.00
33635;BME280;19972;54.360;10.076;2022-11-23T09:55:33;99465.91;;;5.19;100.00
33635;BME280;19972;54.360;10.076;2022-11-23T09:58:09;99468.59;;;5.32;100.00
33635;BME280;19972;54.360;10.076;2022-11-23T10:00:53;99468.25;;;5.65;100.00
33635;BME280;19972;54.360;10.076;2022-11-23T10:03:22;99470.03;;;5.78;100.00
33635;BME280;19972;54.360;10.076;2022-11-23T10:11:57;99484.94;;;6.19;100.00
33635;BME280;19972;54.360;10.076;2022-11-23T10:14:38;99485.72;;;5.80;100.00
33635;BME280;19972;54.360;10.076;2022-11-23T10:17:23;99478.25;;;6.01;100.00
33635;BME280;19972;54.360;10.076;2022-11-23T10:20:48;99481.00;;;5.85;100.00
33635;BME280;19972;54.360;10.076;2022-11-23T10:23:00;99478.81;;;6.19;100.00
33635;BME280;19972;54.360;10.076;2022-11-23T10:25:32;99481.31;;;6.07;100.00
33635;BME280;19972;54.360;10.076;2022-11-23T10:28:14;99480.34;;;6.48;100.00
33635;BME280;19972;54.360;10.076;2022-11-23T10:30:41;99485.03;;;6.83;100.00
33635;BME280;19972;54.360;10.076;2022-11-23T10:33:20;99484.97;;;6.32;100.00
33635;BME280;19972;54.360;10.076;2022-11-23T10:35:47;99481.84;;;6.52;100.00
33635;BME280;19972;54.360;10.076;2022-11-23T10:38:17;99479.06;;;6.28;100.00
33635;BME280;19972;54.360;10.076;2022-11-23T10:43:56;99470.31;;;6.28;100.00
33635;BME280;19972;54.360;10.076;2022-11-23T10:46:36;99473.31;;;6.22;100.00
33635;BME280;19972;54.360;10.076;2022-11-23T10:52:03;99472.56;;;6.07;100.00
33635;BME280;19972;54.360;10.076;2022-11-23T10:57:30;99473.31;;;6.22;100.00
33635;BME280;19972;54.360;10.076;2022-11-23T11:00:00;99474.09;;;6.24;100.00
33635;BME280;19972;54.360;10.076;2022-11-23T11:02:38;99462.72;;;6.36;100.00
33635;BME280;19972;54.360;10.076;2022-11-23T11:05:29;99476.50;;;6.27;100.00
33635;BME280;19972;54.360;10.076;2022-11-23T11:08:18;99472.72;;;6.18;100.00
33635;BME280;19972;54.360;10.076;2022-11-23T11:10:46;99478.00;;;6.31;100.00
33635;BME280;19972;54.360;10.076;2022-11-23T11:13:39;99475.91;;;6.49;100.00
33635;BME280;19972;54.360;10.076;2022-11-23T11:16:19;99474.22;;;6.35;100.00
33635;BME280;19972;54.360;10.076;2022-11-23T11:18:46;99468.00;;;6.49;100.00
33635;BME280;19972;54.360;10.076;2022-11-23T11:23:53;99465.41;;;6.74;100.00
33635;BME280;19972;54.360;10.076;2022-11-23T11:26:22;99472.78;;;6.82;100.00
33635;BME280;19972;54.360;10.076;2022-11-23T11:28:53;99473.44;;;6.73;100.00
33635;BME280;19972;54.360;10.076;2022-11-23T11:31:26;99471.72;;;6.72;100.00
33635;BME280;19972;54.360;10.076;2022-11-23T11:34:15;99472.59;;;6.85;100.00
33635;BME280;19972;54.360;10.076;2022-11-23T11:37:08;99478.59;;;6.61;100.00
33635;BME280;19972;54.360;10.076;2022-11-23T11:39:43;99472.34;;;6.88;100.00
33635;BME280;19972;54.360;10.076;2022-11-23T11:42:17;99477.41;;;7.04;100.00
33635;BME280;19972;54.360;10.076;2022-11-23T11:44:46;99475.19;;;7.10;100.00
33635;BME280;19972;54.360;10.076;2022-11-23T11:47:23;99482.25;;;7.10;100.00
33635;BME280;19972;54.360;10.076;2022-11-23T11:49:57;99478.44;;;7.39;100.00
33635;BME280;19972;54.360;10.076;2022-11-23T11:52:30;99475.84;;;7.14;100.00
33635;BME280;19972;54.360;10.076;2022-11-23T11:55:04;99480.97;;;7.41;100.00
33635;BME280;19972;54.360;10.076;2022-11-23T11:57:54;99482.66;;;7.42;100.00
33635;BME280;19972;54.360;10.076;2022-11-23T12:00:21;99471.53;;;7.00;100.00
33635;BME280;19972;54.360;10.076;2022-11-23T12:10:40;99473.69;;;7.32;100.00
33635;BME280;19972;54.360;10.076;2022-11-23T12:13:20;99460.72;;;7.29;100.00
33635;BME280;19972;54.360;10.076;2022-11-23T12:15:59;99464.41;;;7.39;100.00
33635;BME280;19972;54.360;10.076;2022-11-23T12:19:12;99468.63;;;7.65;100.00
33635;BME280;19972;54.360;10.076;2022-11-23T12:21:55;99468.25;;;8.07;100.00
33635;BME280;19972;54.360;10.076;2022-11-23T12:24:46;99481.69;;;8.28;100.00
33635;BME280;19972;54.360;10.076;2022-11-23T12:27:47;99476.47;;;8.39;100.00
33635;BME280;19972;54.360;10.076;2022-11-23T12:30:28;99476.56;;;8.13;100.00
33635;BME280;19972;54.360;10.076;2022-11-23T12:36:21;99469.72;;;7.87;100.00
33635;BME280;19972;54.360;10.076;2022-11-23T12:42:07;99470.59;;;7.38;100.00
33635;BME280;19972;54.360;10.076;2022-11-23T12:44:51;99469.81;;;7.25;100.00
33635;BME280;19972;54.360;10.076;2022-11-23T12:50:48;99459.53;;;7.70;100.00
33635;BME280;19972;54.360;10.076;2022-11-23T12:53:35;99459.53;;;7.70;100.00
33635;BME280;19972;54.360;10.076;2022-11-23T12:58:40;99454.56;;;8.37;100.00
33635;BME280;19972;54.360;10.076;2022-11-23T13:01:19;99458.47;;;8.44;100.00
33635;BME280;19972;54.360;10.076;2022-11-23T13:09:59;99456.28;;;7.90;100.00
33635;BME280;19972;54.360;10.076;2022-11-23T13:18:40;99458.53;;;8.07;100.00
33635;BME280;19972;54.360;10.076;2022-11-23T13:23:39;99451.06;;;8.83;100.00
33635;BME280;19972;54.360;10.076;2022-11-23T13:26:22;99457.06;;;8.62;100.00
33635;BME280;19972;54.360;10.076;2022-11-23T13:28:51;99465.88;;;9.08;100.00
33635;BME280;19972;54.360;10.076;2022-11-23T13:31:19;99471.53;;;9.37;100.00
33635;BME280;19972;54.360;10.076;2022-11-23T13:33:48;99476.34;;;9.20;100.00
33635;BME280;19972;54.360;10.076;2022-11-23T13:42:21;99452.56;;;7.92;100.00
33635;BME280;19972;54.360;10.076;2022-11-23T13:50:58;99430.75;;;7.04;100.00
33635;BME280;19972;54.360;10.076;2022-11-23T13:53:33;99433.28;;;7.19;100.00
33635;BME280;19972;54.360;10.076;2022-11-23T13:56:38;99429.84;;;6.80;100.00
33635;BME280;19972;54.360;10.076;2022-11-23T13:59:26;99429.13;;;6.78;100.00
33635;BME280;19972;54.360;10.076;2022-11-23T14:04:44;99426.31;;;7.05;100.00
33635;BME280;19972;54.360;10.076;2022-11-23T14:09:50;99422.22;;;6.88;100.00
33635;BME280;19972;54.360;10.076;2022-11-23T14:12:41;99410.84;;;6.75;100.00
33635;BME280;19972;54.360;10.076;2022-11-23T14:15:18;99414.78;;;6.56;100.00
33635;BME280;19972;54.360;10.076;2022-11-23T14:26:31;99414.84;;;6.29;100.00
33635;BME280;19972;54.360;10.076;2022-11-23T14:35:06;99424.16;;;6.35;100.00
33635;BME280;19972;54.360;10.076;2022-11-23T14:38:11;99430.91;;;6.39;100.00
33635;BME280;19972;54.360;10.076;2022-11-23T14:43:39;99425.69;;;6.12;100.00
33635;BME280;19972;54.360;10.076;2022-11-23T14:46:13;99428.69;;;6.33;100.00
33635;BME280;19972;54.360;10.076;2022-11-23T14:48:40;99434.56;;;6.24;100.00